| time (UTC) | Packet |
| 20260509052227 | KO5MO-4>APRS,TCPIP*,qAC,T2TAS:=3333.69N/11210.39W_202.5/003g003t088r000p...P...h18b100605N1 - Room Humidity: 19.49% Room Temp:82.39 F |
| 20260509052727 | KO5MO-4>APRS,TCPIP*,qAC,T2TAS:=3333.69N/11210.39W_202.5/006g003t088r000p...P...h18b100605N1 - Room Humidity: 19.36% Room Temp:82.01 F |
| 20260509053227 | KO5MO-4>APRS,TCPIP*,qAC,T2TAS:=3333.69N/11210.39W_202.5/004g004t087r000p...P...h18b100585N1 - Room Humidity: 19.87% Room Temp:81.87 F |
| 20260509053727 | KO5MO-4>APRS,TCPIP*,qAC,T2TAS:=3333.69N/11210.39W_202.5/003g004t087r000p...P...h18b100595N1 - Room Humidity: 20.13% Room Temp:82.32 F |
| 20260509054727 | KO5MO-4>APRS,TCPIP*,qAC,T2TAS:=3333.69N/11210.39W_247.5/005g006t087r000p...P...h18b100595N1 - Room Humidity: 19.43% Room Temp:81.91 F |
| 20260509055227 | KO5MO-4>APRS,TCPIP*,qAC,T2TAS:=3333.69N/11210.39W_247.5/004g004t087r000p...P...h18b100585N1 - Room Humidity: 19.99% Room Temp:81.92 F |
| 20260509060227 | KO5MO-4>APRS,TCPIP*,qAC,T2TAS:=3333.69N/11210.39W_247.5/006g005t087r000p...P...h18b100595N1 - Room Humidity: 19.84% Room Temp:82.23 F |
| 20260509061227 | KO5MO-4>APRS,TCPIP*,qAC,T2TAS:=3333.69N/11210.39W_202.5/009g006t087r000p...P...h18b100595N1 - Room Humidity: 19.65% Room Temp:81.95 F |
| 20260509063727 | KO5MO-4>APRS,TCPIP*,qAC,T2TAS:=3333.69N/11210.39W_292.5/002g003t086r000p...P...h17b100615N1 - Room Humidity: 19.51% Room Temp:82.31 F |
| 20260509070227 | KO5MO-4>APRS,TCPIP*,qAC,T2TAS:=3333.69N/11210.39W_292.5/002g001t083r000p...P...h19b100625N1 - Room Humidity: 19.22% Room Temp:82.12 F |
| 20260509070727 | KO5MO-4>APRS,TCPIP*,qAC,T2TAS:=3333.69N/11210.39W_337.5/001g002t083r000p...P...h19b100625N1 - Room Humidity: 19.66% Room Temp:81.86 F |
| 20260509072226 | KO5MO-4>APRS,TCPIP*,qAC,T2TAS:=3333.69N/11210.39W_337.5/000g000t080r000p...P...h21b100645N1 - Room Humidity: 19.05% Room Temp:82.18 F |
| 20260509072727 | KO5MO-4>APRS,TCPIP*,qAC,T2TAS:=3333.69N/11210.39W_337.5/000g000t080r000p...P...h21b100625N1 - Room Humidity: 19.4% Room Temp:81.86 F |
| 20260509074227 | KO5MO-4>APRS,TCPIP*,qAC,T2TAS:=3333.69N/11210.39W_247.5/002g001t080r000p...P...h21b100625N1 - Room Humidity: 19.29% Room Temp:82.44 F |
| 20260509080227 | KO5MO-4>APRS,TCPIP*,qAC,T2TAS:=3333.69N/11210.39W_247.5/002g002t080r000p...P...h21b100625N1 - Room Humidity: 19.14% Room Temp:82.76 F |
| 20260509082227 | KO5MO-4>APRS,TCPIP*,qAC,T2TAS:=3333.69N/11210.39W_247.5/002g002t079r000p...P...h20b100635N1 - Room Humidity: 19.03% Room Temp:82.77 F |
| 20260509083227 | KO5MO-4>APRS,TCPIP*,qAC,T2TAS:=3333.69N/11210.39W_247.5/001g001t079r000p...P...h20b100625N1 - Room Humidity: 19.35% Room Temp:82.16 F |
| 20260509090727 | KO5MO-4>APRS,TCPIP*,qAC,T2TAS:=3333.69N/11210.39W_247.5/006g006t083r000p...P...h17b100645N1 - Room Humidity: 18.71% Room Temp:82.78 F |
| 20260509091227 | KO5MO-4>APRS,TCPIP*,qAC,T2TAS:=3333.69N/11210.39W_247.5/007g006t083r000p...P...h17b100645N1 - Room Humidity: 18.92% Room Temp:82.41 F |
| 20260509091727 | KO5MO-4>APRS,TCPIP*,qAC,T2TAS:=3333.69N/11210.39W_247.5/003g005t083r000p...P...h17b100645N1 - Room Humidity: 19.07% Room Temp:82.25 F |
| 20260509093227 | KO5MO-4>APRS,TCPIP*,qAC,T2TAS:=3333.69N/11210.39W_247.5/005g004t082r000p...P...h17b100635N1 - Room Humidity: 18.57% Room Temp:82.57 F |
| 20260509094227 | KO5MO-4>APRS,TCPIP*,qAC,T2TAS:=3333.69N/11210.39W_247.5/004g006t082r000p...P...h17b100635N1 - Room Humidity: 19.29% Room Temp:82.34 F |
| 20260509100727 | KO5MO-4>APRS,TCPIP*,qAC,T2TAS:=3333.69N/11210.39W_247.5/004g004t080r000p...P...h19b100625N1 - Room Humidity: 19.18% Room Temp:82.51 F |
| 20260509101227 | KO5MO-4>APRS,TCPIP*,qAC,T2TAS:=3333.69N/11210.39W_247.5/005g003t080r000p...P...h19b100625N1 - Room Humidity: 18.6% Room Temp:82.63 F |
| 20260509102727 | KO5MO-4>APRS,TCPIP*,qAC,T2TAS:=3333.69N/11210.39W_337.5/003g003t080r000p...P...h20b100625N1 - Room Humidity: 19.41% Room Temp:82.6 F |
| 20260509104227 | KO5MO-4>APRS,TCPIP*,qAC,T2TAS:=3333.69N/11210.39W_292.5/003g003t079r000p...P...h21b100635N1 - Room Humidity: 19.32% Room Temp:82.3 F |
| 20260509105727 | KO5MO-4>APRS,TCPIP*,qAC,T2TAS:=3333.69N/11210.39W_292.5/004g004t079r000p...P...h22b100635N1 - Room Humidity: 18.38% Room Temp:83.02 F |